Time;durP1;ratioP1;P1;durP2;ratioP2;P2;SDS_P1;SDS_P2;PMS_P1;PMS_P2;Temp;Humidity;BMP_temperature;BMP_pressure;BME280_temperature;BME280_humidity;BME280_pressure;Samples;Min_cycle;Max_cycle;Signal;HPM_P1;HPM_P2
2022/04/28 00:00:25;;;;;;;9.15;6.65;;;12.40;69.80;;;;;;5054714;28;20033;-11
2022/04/28 00:02:52;;;;;;;12.70;8.95;;;12.40;70.40;;;;;;5055489;28;20048;-11
2022/04/28 00:05:18;;;;;;;11.52;6.25;;;12.40;71.20;;;;;;5055711;28;20067;-12
2022/04/28 00:07:46;;;;;;;8.18;5.97;;;12.40;70.90;;;;;;5055563;28;20489;-12
2022/04/28 00:10:13;;;;;;;10.32;6.95;;;12.30;71.00;;;;;;5055870;28;20075;-13
2022/04/28 00:12:40;;;;;;;9.93;7.10;;;12.30;70.90;;;;;;5055512;28;20083;-12
2022/04/28 00:15:06;;;;;;;15.20;9.75;;;12.20;70.80;;;;;;5055384;28;20417;-11
2022/04/28 00:17:32;;;;;;;9.43;5.85;;;12.10;71.20;;;;;;5055860;28;20033;-13
2022/04/28 00:19:58;;;;;;;9.55;6.45;;;12.10;71.20;;;;;;5055315;28;20048;-11
2022/04/28 00:22:25;;;;;;;11.07;6.80;;;12.00;71.40;;;;;;5055027;28;20036;-12
2022/04/28 00:24:51;;;;;;;7.53;4.70;;;12.00;71.20;;;;;;5055332;28;20033;-11
2022/04/28 00:27:17;;;;;;;7.80;4.97;;;12.10;70.60;;;;;;5055592;28;20052;-12
2022/04/28 00:29:43;;;;;;;9.68;5.70;;;12.10;70.30;;;;;;5053989;28;20381;-11
2022/04/28 00:32:09;;;;;;;10.48;6.05;;;12.10;70.50;;;;;;5053984;28;20120;-11
2022/04/28 00:34:35;;;;;;;10.52;6.47;;;12.10;70.40;;;;;;5054963;28;20036;-12
2022/04/28 00:37:02;;;;;;;10.52;5.97;;;12.00;70.40;;;;;;5054997;28;20036;-11
2022/04/28 00:39:28;;;;;;;9.85;5.28;;;11.90;70.50;;;;;;5055586;28;20060;-12
2022/04/28 00:41:53;;;;;;;9.70;6.53;;;11.90;70.70;;;;;;5054943;28;20425;-11
2022/04/28 00:44:19;;;;;;;10.23;5.88;;;11.70;71.30;;;;;;5054843;28;20119;-11
2022/04/28 00:46:45;;;;;;;7.45;5.03;;;11.60;71.20;;;;;;5054794;28;20025;-11
2022/04/28 00:51:55;;;;;;;8.73;4.85;;;11.40;71.70;;;;;;5055260;28;20113;-11
2022/04/28 00:54:22;;;;;;;8.45;5.20;;;11.20;71.90;;;;;;5054769;28;20088;-11
2022/04/28 00:56:49;;;;;;;12.45;6.10;;;11.10;72.40;;;;;;5054935;28;20028;-11
2022/04/28 00:59:15;;;;;;;8.85;4.82;;;11.00;72.40;;;;;;5054885;28;20033;-11
2022/04/28 01:01:41;;;;;;;10.18;5.07;;;10.90;72.40;;;;;;5054905;28;20086;-12
2022/04/28 01:04:07;;;;;;;6.63;4.47;;;10.80;72.90;;;;;;5054541;28;20025;-11
2022/04/28 01:06:33;;;;;;;6.55;4.40;;;10.80;73.10;;;;;;5054250;28;20032;-11
2022/04/28 01:09:00;;;;;;;6.45;4.43;;;10.70;73.40;;;;;;5054414;28;20059;-12
2022/04/28 01:11:28;;;;;;;7.20;4.95;;;10.60;73.50;;;;;;5054838;28;20042;-12
2022/04/28 01:13:53;;;;;;;8.27;4.40;;;10.60;73.40;;;;;;5053801;28;20092;-11
2022/04/28 01:16:19;;;;;;;8.38;5.10;;;10.60;73.60;;;;;;5054107;28;20021;-11
2022/04/28 01:18:45;;;;;;;11.15;5.50;;;10.60;73.60;;;;;;5054591;28;20025;-11
2022/04/28 01:21:11;;;;;;;6.78;4.30;;;10.60;74.00;;;;;;5054464;28;20032;-11
2022/04/28 01:23:37;;;;;;;7.05;4.13;;;10.50;73.90;;;;;;5054131;28;20020;-10
2022/04/28 01:26:04;;;;;;;7.05;4.40;;;10.50;73.60;;;;;;5054129;28;20389;-11
2022/04/28 01:28:32;;;;;;;5.00;3.67;;;10.50;73.90;;;;;;5053869;28;20401;-11
2022/04/28 01:31:05;;;;;;;6.65;3.95;;;10.50;73.70;;;;;;5054316;28;20024;-11
2022/04/28 01:33:31;;;;;;;6.90;4.07;;;10.50;73.50;;;;;;5054257;28;20025;-11
2022/04/28 01:35:58;;;;;;;7.60;4.50;;;10.40;73.60;;;;;;5052686;28;20025;-12
2022/04/28 01:38:24;;;;;;;5.63;3.75;;;10.40;73.90;;;;;;5053930;28;20021;-11
2022/04/28 01:40:49;;;;;;;7.15;3.92;;;10.30;73.60;;;;;;5054048;28;20043;-13
2022/04/28 01:43:15;;;;;;;7.97;4.15;;;10.30;73.80;;;;;;5053806;28;20029;-12
2022/04/28 01:45:41;;;;;;;5.47;3.67;;;10.30;73.90;;;;;;5053751;28;20032;-13
2022/04/28 01:48:07;;;;;;;4.50;3.58;;;10.30;73.70;;;;;;5053717;28;20021;-12
2022/04/28 01:50:33;;;;;;;5.65;3.45;;;10.30;73.70;;;;;;5053523;28;20087;-12
2022/04/28 01:55:43;;;;;;;6.28;3.55;;;10.20;74.10;;;;;;5053689;28;20039;-12
2022/04/28 01:58:09;;;;;;;5.95;4.00;;;10.20;73.90;;;;;;5053554;28;20032;-12
2022/04/28 02:00:35;;;;;;;6.80;4.20;;;10.10;74.10;;;;;;5053533;28;20029;-12
2022/04/28 02:03:01;;;;;;;7.35;4.55;;;10.10;74.40;;;;;;5053748;28;20440;-12
2022/04/28 02:05:27;;;;;;;6.75;4.30;;;10.00;74.80;;;;;;5053633;28;20446;-11
2022/04/28 02:07:53;;;;;;;7.15;4.72;;;10.00;74.90;;;;;;5053649;28;20033;-11
2022/04/28 02:10:19;;;;;;;5.97;3.80;;;9.90;75.20;;;;;;5053143;28;20031;-11
2022/04/28 02:12:45;;;;;;;6.32;3.90;;;9.90;75.40;;;;;;5053580;28;20099;-12
2022/04/28 02:15:11;;;;;;;6.15;3.90;;;9.90;75.00;;;;;;5053126;28;20048;-12
2022/04/28 02:17:39;;;;;;;6.85;4.30;;;9.90;75.00;;;;;;5053248;28;20541;-11
2022/04/28 02:20:08;;;;;;;7.05;3.92;;;9.90;75.10;;;;;;5053154;28;20033;-12
2022/04/28 02:22:34;;;;;;;6.45;4.10;;;9.90;75.20;;;;;;5052947;28;20102;-12
2022/04/28 02:25:00;;;;;;;6.28;3.78;;;9.90;75.60;;;;;;5052681;28;20150;-11
2022/04/28 02:27:27;;;;;;;4.95;3.60;;;9.90;75.50;;;;;;5053284;28;20107;-12
2022/04/28 02:29:53;;;;;;;4.80;3.45;;;9.90;75.60;;;;;;5053072;28;20025;-12
2022/04/28 02:32:19;;;;;;;5.35;3.53;;;9.80;75.40;;;;;;5052862;28;20025;-12
2022/04/28 02:34:45;;;;;;;4.18;3.10;;;9.80;75.30;;;;;;5053063;28;20025;-11
2022/04/28 02:37:11;;;;;;;5.28;3.42;;;9.80;75.20;;;;;;5052910;28;20033;-12
2022/04/28 02:39:36;;;;;;;4.93;3.20;;;9.70;75.50;;;;;;5053225;28;20032;-11
2022/04/28 02:42:03;;;;;;;5.03;3.35;;;9.70;75.40;;;;;;5053284;28;20388;-12
2022/04/28 02:44:28;;;;;;;4.80;2.78;;;9.70;75.30;;;;;;5053826;28;20090;-12
2022/04/28 02:46:54;;;;;;;4.53;3.35;;;9.70;75.30;;;;;;5053365;28;20473;-12
2022/04/28 02:49:20;;;;;;;5.15;3.38;;;9.60;75.30;;;;;;5052914;28;20034;-11
2022/04/28 02:51:46;;;;;;;5.68;3.83;;;9.50;75.40;;;;;;5052855;28;20104;-12
2022/04/28 02:54:12;;;;;;;5.97;3.72;;;9.50;75.60;;;;;;5052727;28;20033;-12
2022/04/28 02:56:38;;;;;;;7.93;4.47;;;9.50;75.70;;;;;;5053542;28;20025;-12
2022/04/28 02:59:05;;;;;;;6.97;4.15;;;9.50;76.30;;;;;;5053291;28;20106;-11
2022/04/28 03:01:31;;;;;;;5.65;3.75;;;9.40;76.10;;;;;;5053945;28;20068;-11
2022/04/28 03:03:57;;;;;;;7.72;4.32;;;9.40;76.40;;;;;;5052688;28;20123;-12
2022/04/28 03:11:53;;;;;;;7.18;4.00;;;9.40;76.80;;;;;;5053044;28;20075;-12
2022/04/28 03:14:21;;;;;;;7.30;4.15;;;9.30;76.80;;;;;;5052174;28;20136;-13
2022/04/28 03:16:47;;;;;;;9.02;4.40;;;9.20;77.10;;;;;;5052647;28;20025;-11
2022/04/28 03:19:13;;;;;;;5.65;3.88;;;9.20;77.30;;;;;;5052854;28;20029;-12
2022/04/28 03:21:39;;;;;;;6.60;4.10;;;9.20;77.10;;;;;;5052908;28;20428;-11
2022/04/28 03:24:05;;;;;;;7.45;4.18;;;9.20;77.00;;;;;;5052561;28;20024;-12
2022/04/28 03:26:32;;;;;;;6.20;3.58;;;9.20;77.10;;;;;;5052259;28;20108;-11
2022/04/28 03:28:58;;;;;;;9.50;5.15;;;9.20;77.10;;;;;;5052498;28;20052;-11
2022/04/28 03:31:24;;;;;;;9.50;5.40;;;9.10;77.20;;;;;;5052453;28;20511;-11
2022/04/28 03:33:50;;;;;;;6.85;3.95;;;9.10;77.30;;;;;;5052763;28;20172;-10
2022/04/28 03:39:01;;;;;;;6.63;4.18;;;9.00;77.20;;;;;;5056336;28;20389;-11
2022/04/28 03:41:27;;;;;;;6.95;3.85;;;9.00;77.70;;;;;;5056604;28;20021;-13
2022/04/28 03:43:53;;;;;;;6.43;4.05;;;9.00;77.90;;;;;;5056399;28;20059;-12
2022/04/28 03:46:20;;;;;;;6.60;3.72;;;8.90;77.60;;;;;;5055862;28;20033;-12
2022/04/28 03:48:48;;;;;;;7.15;4.00;;;8.90;77.70;;;;;;5056013;28;20036;-12
2022/04/28 03:51:14;;;;;;;7.78;3.80;;;8.90;77.50;;;;;;5056267;28;20029;-11
2022/04/28 03:53:40;;;;;;;6.43;4.13;;;8.90;77.60;;;;;;5056154;28;20028;-12
2022/04/28 03:56:06;;;;;;;7.38;4.28;;;8.90;77.90;;;;;;5054549;28;20033;-11
2022/04/28 03:58:32;;;;;;;7.03;3.92;;;8.90;78.00;;;;;;5055723;28;20116;-11
2022/04/28 04:00:59;;;;;;;7.68;4.55;;;8.80;77.70;;;;;;5055696;28;20068;-12
2022/04/28 04:03:25;;;;;;;8.27;4.43;;;8.80;78.00;;;;;;5056043;28;20426;-12
2022/04/28 04:05:51;;;;;;;4.70;3.00;;;8.80;78.40;;;;;;5055767;28;20113;-11
2022/04/28 04:08:17;;;;;;;7.47;3.30;;;8.70;77.80;;;;;;5055468;28;20039;-11
2022/04/28 04:10:43;;;;;;;6.25;3.78;;;8.70;77.60;;;;;;5055933;28;20025;-12
2022/04/28 04:13:09;;;;;;;6.82;4.25;;;8.60;77.80;;;;;;5055883;28;20055;-12
2022/04/28 04:15:35;;;;;;;10.75;5.07;;;8.60;78.20;;;;;;5055346;28;20053;-12
2022/04/28 04:18:02;;;;;;;9.70;4.47;;;8.50;78.20;;;;;;5055598;28;20025;-11
2022/04/28 04:20:28;;;;;;;5.80;3.90;;;8.50;78.20;;;;;;5055408;28;20047;-12
2022/04/28 04:22:54;;;;;;;10.32;5.22;;;8.40;78.30;;;;;;5054311;28;20025;-11
2022/04/28 04:25:21;;;;;;;6.75;4.07;;;8.40;78.50;;;;;;5055693;28;20032;-11
2022/04/28 04:27:47;;;;;;;6.85;4.20;;;8.50;78.20;;;;;;5055538;28;20163;-12
2022/04/28 04:32:57;;;;;;;14.95;5.10;;;8.40;78.60;;;;;;5055556;28;20036;-13
2022/04/28 04:35:24;;;;;;;10.93;5.00;;;8.50;78.70;;;;;;5055425;28;20389;-12
2022/04/28 04:37:53;;;;;;;12.02;5.40;;;8.40;78.30;;;;;;5055492;28;20025;-11
2022/04/28 04:40:20;;;;;;;13.02;5.78;;;8.40;78.80;;;;;;5055050;28;20086;-11
2022/04/28 04:42:46;;;;;;;11.18;5.78;;;8.40;78.80;;;;;;5054233;28;20114;-12
2022/04/28 04:45:12;;;;;;;7.80;4.50;;;8.50;78.60;;;;;;5054837;28;20040;-11
2022/04/28 04:47:38;;;;;;;10.15;5.10;;;8.60;78.60;;;;;;5054141;28;20543;-13
2022/04/28 04:50:07;;;;;;;10.93;5.75;;;8.60;78.60;;;;;;5054903;28;20021;-10
2022/04/28 04:52:34;;;;;;;8.82;4.78;;;8.70;78.50;;;;;;5054839;28;20091;-11
2022/04/28 04:55:00;;;;;;;9.55;5.35;;;8.80;78.50;;;;;;5054747;28;20392;-11
2022/04/28 04:57:26;;;;;;;12.00;6.30;;;8.90;78.40;;;;;;5055042;28;20098;-11
2022/04/28 04:59:52;;;;;;;12.88;5.72;;;8.90;78.80;;;;;;5054535;28;20029;-12
2022/04/28 05:02:19;;;;;;;11.55;5.30;;;9.10;79.00;;;;;;5054534;28;20025;-12
2022/04/28 05:04:45;;;;;;;9.88;5.35;;;9.20;78.40;;;;;;5054593;28;20100;-12
2022/04/28 05:07:11;;;;;;;10.85;5.28;;;9.30;78.20;;;;;;5054845;28;20033;-11
2022/04/28 05:09:38;;;;;;;8.80;5.10;;;9.40;78.10;;;;;;5055066;28;20108;-11
2022/04/28 05:12:05;;;;;;;10.98;6.05;;;9.60;78.40;;;;;;5054433;28;20021;-11
2022/04/28 05:14:31;;;;;;;10.88;6.45;;;9.70;78.40;;;;;;5054004;28;20136;-11
2022/04/28 05:16:58;;;;;;;14.82;7.63;;;9.90;78.50;;;;;;5054753;28;20104;-11
2022/04/28 05:19:25;;;;;;;10.35;6.30;;;10.10;78.60;;;;;;5054225;28;20489;-11
2022/04/28 05:21:51;;;;;;;10.18;6.28;;;10.30;78.70;;;;;;5054215;28;20025;-12
2022/04/28 05:24:17;;;;;;;12.65;6.72;;;10.40;78.80;;;;;;5053923;28;20036;-12
2022/04/28 05:26:43;;;;;;;10.10;5.88;;;10.60;78.90;;;;;;5054148;28;20021;-11
2022/04/28 05:29:09;;;;;;;10.23;5.65;;;10.80;79.00;;;;;;5054128;28;20029;-11
2022/04/28 05:31:36;;;;;;;11.15;6.28;;;11.00;79.00;;;;;;5054346;28;20071;-11
2022/04/28 05:34:01;;;;;;;10.73;5.78;;;11.30;78.80;;;;;;5054300;28;20162;-11
2022/04/28 05:36:28;;;;;;;9.70;4.43;;;11.60;78.50;;;;;;5054076;28;20116;-11
2022/04/28 05:38:58;;;;;;;9.07;5.55;;;11.90;78.20;;;;;;5054083;28;20029;-11
2022/04/28 05:41:25;;;;;;;11.77;5.68;;;12.20;77.80;;;;;;5053944;28;20068;-11
2022/04/28 05:46:37;;;;;;;7.97;5.15;;;12.50;77.90;;;;;;5054425;28;20056;-11
2022/04/28 05:49:07;;;;;;;9.45;4.78;;;12.70;77.40;;;;;;5053734;28;20493;-12
2022/04/28 05:51:33;;;;;;;8.05;5.03;;;12.80;77.50;;;;;;5053611;28;20492;-11
2022/04/28 05:53:59;;;;;;;11.82;6.30;;;13.00;77.90;;;;;;5053552;28;20055;-10
2022/04/28 05:56:25;;;;;;;7.70;4.63;;;13.30;76.10;;;;;;5054252;28;20021;-11
2022/04/28 05:58:51;;;;;;;7.45;4.65;;;13.50;76.60;;;;;;5053860;28;20036;-11
2022/04/28 06:01:17;;;;;;;7.03;5.05;;;13.80;76.00;;;;;;5053810;28;20119;-11
2022/04/28 06:03:43;;;;;;;8.63;5.30;;;14.00;76.10;;;;;;5054113;28;20052;-12
2022/04/28 06:06:10;;;;;;;9.93;5.10;;;14.20;74.80;;;;;;5054091;28;20032;-12
2022/04/28 06:08:36;;;;;;;8.45;4.90;;;14.40;73.80;;;;;;5053429;28;20036;-12
2022/04/28 06:11:02;;;;;;;8.00;5.38;;;14.60;74.10;;;;;;5053679;28;20104;-12
2022/04/28 06:13:30;;;;;;;7.75;4.57;;;14.70;73.20;;;;;;5053139;28;20033;-12
2022/04/28 06:15:56;;;;;;;6.20;4.38;;;14.90;73.30;;;;;;5053354;28;20070;-10
2022/04/28 06:18:22;;;;;;;8.00;4.78;;;14.90;72.70;;;;;;5053118;28;20028;-11
2022/04/28 06:20:48;;;;;;;9.88;4.65;;;15.10;72.20;;;;;;5053432;28;20025;-11
2022/04/28 06:23:14;;;;;;;6.85;4.72;;;15.40;71.50;;;;;;5053503;28;20021;-13
2022/04/28 06:25:40;;;;;;;23.75;14.43;;;15.60;70.80;;;;;;5053476;28;20029;-12
2022/04/28 06:28:06;;;;;;;10.23;7.00;;;15.90;69.90;;;;;;5053162;28;20053;-12
2022/04/28 06:30:32;;;;;;;8.57;5.88;;;15.90;69.10;;;;;;5052856;28;20021;-12
2022/04/28 06:32:58;;;;;;;10.48;5.53;;;15.90;68.90;;;;;;5053020;28;20025;-11
2022/04/28 06:35:25;;;;;;;17.90;12.35;;;15.80;68.50;;;;;;5053311;28;20029;-11
2022/04/28 06:37:50;;;;;;;7.75;5.82;;;15.70;68.70;;;;;;5053070;28;20100;-11
2022/04/28 06:40:17;;;;;;;10.85;6.70;;;15.70;68.80;;;;;;5051424;28;20040;-11
2022/04/28 06:42:49;;;;;;;7.35;5.40;;;15.80;69.10;;;;;;5053733;28;20062;-11
2022/04/28 06:45:16;;;;;;;7.83;4.87;;;15.90;68.80;;;;;;5053011;28;20431;-11
2022/04/28 06:47:42;;;;;;;8.93;5.63;;;16.10;68.40;;;;;;5052824;28;20122;-12
2022/04/28 06:50:08;;;;;;;9.00;5.90;;;16.40;67.80;;;;;;5053177;28;20052;-12
2022/04/28 06:52:38;;;;;;;12.32;7.05;;;16.90;66.40;;;;;;5052851;28;20099;-11
2022/04/28 06:55:05;;;;;;;11.90;5.93;;;17.20;66.00;;;;;;5052906;28;20048;-12
2022/04/28 06:57:32;;;;;;;9.85;5.57;;;17.60;65.20;;;;;;5052793;28;20037;-11
2022/04/28 06:59:58;;;;;;;12.07;6.70;;;18.00;64.30;;;;;;5051469;28;20021;-11
2022/04/28 07:02:24;;;;;;;12.48;7.55;;;18.30;62.70;;;;;;5052865;28;20021;-11
2022/04/28 07:04:51;;;;;;;12.10;8.77;;;18.40;62.60;;;;;;5052752;28;20032;-13
2022/04/28 07:07:17;;;;;;;8.00;5.13;;;18.70;62.00;;;;;;5053028;28;20029;-12
2022/04/28 07:09:43;;;;;;;8.60;5.32;;;19.00;61.30;;;;;;5052931;28;20025;-12
2022/04/28 07:12:11;;;;;;;8.77;5.18;;;19.30;60.70;;;;;;5056871;28;20136;-11
2022/04/28 07:14:36;;;;;;;8.80;4.30;;;19.70;59.30;;;;;;5056458;28;20467;-11
2022/04/28 07:17:03;;;;;;;8.55;5.10;;;20.00;58.80;;;;;;5056936;28;20534;-11
2022/04/28 07:19:28;;;;;;;5.80;4.13;;;20.20;57.50;;;;;;5056808;28;20603;-10
2022/04/28 07:21:54;;;;;;;7.80;3.78;;;20.30;57.10;;;;;;5056985;28;20037;-11
2022/04/28 07:24:20;;;;;;;6.70;3.70;;;20.40;57.00;;;;;;5056141;28;20028;-12
2022/04/28 07:26:46;;;;;;;7.18;4.20;;;20.70;56.50;;;;;;5056404;28;20025;-11
2022/04/28 07:29:12;;;;;;;3.88;3.03;;;20.90;55.70;;;;;;5056691;28;20029;-12
2022/04/28 07:31:38;;;;;;;5.30;3.40;;;21.10;54.80;;;;;;5056647;28;20545;-10
2022/04/28 07:34:04;;;;;;;7.38;4.68;;;21.50;54.50;;;;;;5056325;28;20552;-11
2022/04/28 07:36:30;;;;;;;7.07;3.72;;;21.70;53.50;;;;;;5056358;28;20037;-11
2022/04/28 07:38:56;;;;;;;7.25;4.40;;;21.70;52.90;;;;;;5056797;28;20029;-11
2022/04/28 07:41:21;;;;;;;6.18;4.20;;;21.60;51.60;;;;;;5056089;28;20182;-11
2022/04/28 07:43:47;;;;;;;6.95;3.83;;;21.40;52.90;;;;;;5056363;28;20025;-11
2022/04/28 07:46:13;;;;;;;8.80;4.00;;;21.20;53.10;;;;;;5055894;28;20536;-10
2022/04/28 07:48:40;;;;;;;4.85;3.88;;;21.00;53.00;;;;;;5055975;28;20017;-11
2022/04/28 07:51:06;;;;;;;5.32;3.08;;;21.00;53.20;;;;;;5056811;28;20017;-11
2022/04/28 07:53:32;;;;;;;8.00;3.65;;;20.90;53.20;;;;;;5055802;28;20516;-11
2022/04/28 07:56:15;;;;;;;8.60;3.60;;;21.20;52.30;;;;;;5055910;28;20480;-11
2022/04/28 07:58:45;;;;;;;4.70;3.22;;;21.40;52.00;;;;;;5055923;28;20029;-11
2022/04/28 08:01:12;;;;;;;4.55;3.20;;;21.70;51.90;;;;;;5055667;28;20043;-12
2022/04/28 08:03:38;;;;;;;3.05;2.60;;;21.90;50.00;;;;;;5055783;28;20104;-12
2022/04/28 08:06:07;;;;;;;4.35;2.60;;;22.30;50.40;;;;;;5056014;28;20025;-11
2022/04/28 08:08:36;;;;;;;3.60;2.70;;;22.80;49.10;;;;;;5055353;28;20029;-11
2022/04/28 08:11:03;;;;;;;4.90;2.60;;;23.20;48.70;;;;;;5055911;28;20063;-10
2022/04/28 08:13:29;;;;;;;4.65;3.08;;;23.40;48.30;;;;;;5055372;28;20040;-11
2022/04/28 08:15:57;;;;;;;5.75;2.47;;;23.60;47.40;;;;;;5055795;28;20032;-11
2022/04/28 08:18:24;;;;;;;2.75;2.25;;;23.60;47.60;;;;;;5055584;28;20032;-11
2022/04/28 08:20:50;;;;;;;1.88;1.48;;;23.40;47.20;;;;;;5055337;28;20554;-12
2022/04/28 08:23:16;;;;;;;2.05;1.85;;;23.20;47.60;;;;;;5054463;28;20029;-11
2022/04/28 08:25:42;;;;;;;2.42;2.00;;;23.30;46.90;;;;;;5055635;28;20021;-11
2022/04/28 08:28:08;;;;;;;1.98;1.83;;;23.30;46.20;;;;;;5055590;28;20021;-11
2022/04/28 08:30:34;;;;;;;1.85;1.70;;;23.20;45.90;;;;;;5055105;28;20484;-10
2022/04/28 08:33:00;;;;;;;1.73;1.63;;;23.10;45.60;;;;;;5055651;28;20035;-11
2022/04/28 08:35:28;;;;;;;2.08;1.70;;;23.00;45.90;;;;;;5055394;28;20037;-11
2022/04/28 08:37:54;;;;;;;4.13;2.10;;;23.10;46.00;;;;;;5053785;28;20029;-11
2022/04/28 08:40:20;;;;;;;2.40;1.92;;;23.40;45.90;;;;;;5053708;28;20489;-11
2022/04/28 08:42:48;;;;;;;4.28;2.60;;;23.50;44.70;;;;;;5054921;28;20028;-11
2022/04/28 08:45:21;;;;;;;3.92;2.42;;;23.60;44.00;;;;;;5055278;28;20508;-12
2022/04/28 08:47:48;;;;;;;3.47;2.20;;;23.50;43.30;;;;;;5054937;28;20036;-11
2022/04/28 08:50:15;;;;;;;2.88;2.22;;;23.50;43.80;;;;;;5054937;28;20065;-12
2022/04/28 08:52:41;;;;;;;3.30;2.47;;;23.40;43.00;;;;;;5055112;28;20143;-11
2022/04/28 08:55:08;;;;;;;3.38;2.17;;;23.30;43.20;;;;;;5055084;28;20025;-11
2022/04/28 08:57:34;;;;;;;4.28;2.63;;;23.10;43.40;;;;;;5055052;28;20083;-11
2022/04/28 09:00:01;;;;;;;3.47;2.35;;;23.00;44.00;;;;;;5054637;28;20039;-12
2022/04/28 09:02:32;;;;;;;3.30;2.40;;;23.10;43.90;;;;;;5054466;28;20420;-11
2022/04/28 09:05:04;;;;;;;3.30;2.10;;;23.40;44.00;;;;;;5055788;28;20052;-11
2022/04/28 09:07:38;;;;;;;3.38;2.38;;;23.70;44.10;;;;;;5054605;28;20412;-11
2022/04/28 09:10:25;;;;;;;3.50;2.45;;;24.00;43.50;;;;;;5054517;28;20485;-11
2022/04/28 09:15:51;;;;;;;3.88;2.40;;;24.50;41.90;;;;;;5054366;28;20083;-11
2022/04/28 09:18:18;;;;;;;5.72;3.45;;;24.70;43.00;;;;;;5054305;28;20017;-11
2022/04/28 09:20:46;;;;;;;7.53;4.13;;;24.80;42.10;;;;;;5054206;28;20116;-10
2022/04/28 09:23:13;;;;;;;4.18;3.00;;;24.70;41.50;;;;;;5054456;28;20055;-11
2022/04/28 09:25:40;;;;;;;3.40;2.53;;;24.40;41.30;;;;;;5054564;28;20040;-12
2022/04/28 09:28:09;;;;;;;4.82;3.20;;;23.90;42.30;;;;;;5055467;28;20025;-11
2022/04/28 09:30:43;;;;;;;4.72;3.10;;;23.80;43.10;;;;;;5054203;28;20028;-11
2022/04/28 09:33:13;;;;;;;3.55;2.70;;;24.00;43.80;;;;;;5054141;28;20033;-12
2022/04/28 09:35:51;;;;;;;4.15;3.30;;;24.40;43.40;;;;;;5054001;28;20536;-11
2022/04/28 09:38:18;;;;;;;2.55;2.30;;;24.80;43.00;;;;;;5053705;28;20032;-11
2022/04/28 09:43:35;;;;;;;6.10;3.83;;;25.40;41.70;;;;;;5054412;28;20109;-12
2022/04/28 09:46:04;;;;;;;3.22;2.80;;;25.60;41.20;;;;;;5053075;28;20037;-11
2022/04/28 09:48:32;;;;;;;3.70;2.75;;;25.70;41.50;;;;;;5053910;28;20083;-12
2022/04/28 09:51:04;;;;;;;4.13;2.40;;;25.80;41.20;;;;;;5054046;28;20075;-12
2022/04/28 09:53:31;;;;;;;3.88;2.50;;;26.00;41.20;;;;;;5053918;28;20020;-13
2022/04/28 09:56:01;;;;;;;3.20;2.90;;;26.20;40.60;;;;;;5053946;28;20032;-12
2022/04/28 09:58:29;;;;;;;4.90;3.13;;;26.40;40.20;;;;;;5053735;28;20021;-12
2022/04/28 10:01:03;;;;;;;2.95;2.30;;;26.60;40.10;;;;;;5053468;28;20037;-11
2022/04/28 10:03:33;;;;;;;7.22;4.15;;;26.80;40.20;;;;;;5053874;28;20025;-11
2022/04/28 10:06:05;;;;;;;4.32;3.20;;;27.20;37.70;;;;;;5053485;28;20029;-11
2022/04/28 10:08:33;;;;;;;3.03;2.72;;;27.60;37.90;;;;;;5053237;28;20434;-11
2022/04/28 10:11:03;;;;;;;2.47;2.20;;;27.90;36.60;;;;;;5053466;28;20017;-10
2022/04/28 10:13:30;;;;;;;3.00;2.22;;;27.60;36.70;;;;;;5053207;28;20025;-11
2022/04/28 10:16:00;;;;;;;2.78;2.58;;;27.40;36.40;;;;;;5053600;28;20032;-13
2022/04/28 10:18:35;;;;;;;6.22;2.80;;;27.30;36.10;;;;;;5053378;28;20025;-12
2022/04/28 10:21:05;;;;;;;5.65;3.60;;;26.90;36.50;;;;;;5053822;28;20110;-12
2022/04/28 10:35:03;;;;;;;3.22;2.28;;;26.40;38.20;;;;;;5053211;28;20036;-12
2022/04/28 10:37:35;;;;;;;3.03;2.10;;;26.90;36.40;;;;;;5048678;28;20029;-12
2022/04/28 10:40:03;;;;;;;2.28;1.88;;;27.30;36.70;;;;;;5052908;28;20036;-13
2022/04/28 10:42:30;;;;;;;3.05;2.45;;;27.50;36.00;;;;;;5052740;28;20424;-11
2022/04/28 10:45:04;;;;;;;3.55;2.45;;;27.60;36.30;;;;;;5052280;28;20033;-12
2022/04/28 10:47:35;;;;;;;3.38;2.80;;;27.90;36.70;;;;;;5053009;28;20047;-12
2022/04/28 10:50:03;;;;;;;3.10;2.58;;;28.30;35.90;;;;;;5052892;28;20021;-12
2022/04/28 10:52:29;;;;;;;4.10;2.60;;;28.50;35.30;;;;;;5052965;28;20419;-12
2022/04/28 10:55:01;;;;;;;3.10;2.75;;;28.90;34.20;;;;;;5053060;28;20079;-11
2022/04/28 10:57:37;;;;;;;4.72;2.95;;;29.40;33.70;;;;;;5052880;28;20021;-11
2022/04/28 11:00:04;;;;;;;4.88;3.00;;;29.80;32.80;;;;;;5051501;28;20512;-11
2022/04/28 11:02:35;;;;;;;2.65;2.40;;;30.00;31.60;;;;;;5052630;28;20029;-12
2022/04/28 11:05:23;;;;;;;2.80;2.42;;;30.10;31.70;;;;;;5053050;28;20033;-11
2022/04/28 11:07:49;;;;;;;2.03;1.67;;;30.10;31.70;;;;;;5052871;28;20024;-11
2022/04/28 11:10:15;;;;;;;2.85;2.30;;;30.20;31.90;;;;;;5052661;28;20017;-12
2022/04/28 11:12:42;;;;;;;3.15;2.50;;;30.40;31.60;;;;;;5052652;28;20033;-11
2022/04/28 11:15:10;;;;;;;2.40;2.20;;;30.50;31.80;;;;;;5052468;28;20067;-12
2022/04/28 11:17:38;;;;;;;3.70;2.10;;;30.60;31.50;;;;;;5052981;28;20111;-11
2022/04/28 11:20:12;;;;;;;2.85;2.25;;;30.70;32.00;;;;;;5052566;28;20040;-11
2022/04/28 11:22:51;;;;;;;2.53;2.33;;;30.90;31.90;;;;;;5052469;28;20059;-11
2022/04/28 11:25:20;;;;;;;1.67;1.58;;;31.00;31.50;;;;;;5052622;28;20460;-12
2022/04/28 11:27:50;;;;;;;3.83;3.20;;;31.20;32.10;;;;;;5052806;28;20481;-12
2022/04/28 11:30:22;;;;;;;3.10;2.80;;;31.20;31.30;;;;;;5052700;28;20100;-12
2022/04/28 11:32:52;;;;;;;5.80;3.25;;;30.90;31.40;;;;;;5052526;28;20115;-13
2022/04/28 11:35:19;;;;;;;3.67;2.88;;;30.60;31.60;;;;;;5052519;28;20025;-11
2022/04/28 11:37:46;;;;;;;2.50;2.30;;;30.10;31.80;;;;;;5052483;28;20423;-11
2022/04/28 11:40:14;;;;;;;3.47;2.80;;;29.80;31.80;;;;;;5052628;28;20060;-11
2022/04/28 11:42:44;;;;;;;2.80;2.60;;;29.40;31.80;;;;;;5052777;28;20499;-12
2022/04/28 11:45:11;;;;;;;2.80;2.50;;;29.20;32.70;;;;;;5052494;28;20069;-12
2022/04/28 11:47:45;;;;;;;2.55;2.28;;;29.30;33.10;;;;;;5051177;28;20060;-12
2022/04/28 11:50:22;;;;;;;4.05;2.80;;;29.70;31.50;;;;;;5052622;28;20493;-12
2022/04/28 11:53:01;;;;;;;4.93;2.53;;;30.20;30.60;;;;;;5052393;28;20408;-12
2022/04/28 11:55:30;;;;;;;2.42;2.08;;;30.50;30.40;;;;;;5052385;28;20036;-12
2022/04/28 11:57:56;;;;;;;5.03;2.92;;;30.90;30.60;;;;;;5055425;28;20057;-10
2022/04/28 12:00:26;;;;;;;4.45;2.80;;;31.30;29.90;;;;;;5055818;28;20069;-12
2022/04/28 12:02:56;;;;;;;4.80;3.30;;;31.50;29.90;;;;;;5056124;28;20114;-12
2022/04/28 12:05:25;;;;;;;4.90;2.80;;;31.70;29.40;;;;;;5056120;28;20021;-12
2022/04/28 12:07:52;;;;;;;2.55;2.33;;;31.70;29.90;;;;;;5056052;28;20025;-11
2022/04/28 12:15:56;;;;;;;3.75;2.60;;;32.40;29.80;;;;;;5055903;28;20040;-12
2022/04/28 12:21:21;;;;;;;4.57;3.00;;;33.00;28.00;;;;;;5055881;28;20078;-11
2022/04/28 12:23:51;;;;;;;3.50;3.00;;;33.20;27.50;;;;;;5055346;28;20050;-13
2022/04/28 12:26:24;;;;;;;3.95;2.40;;;33.40;27.20;;;;;;5055477;28;20021;-12
2022/04/28 12:28:51;;;;;;;3.58;2.78;;;33.40;27.20;;;;;;5055386;28;20079;-14
2022/04/28 12:31:31;;;;;;;3.65;2.67;;;33.50;27.40;;;;;;5055182;28;20024;-12
2022/04/28 12:33:59;;;;;;;2.35;2.17;;;33.40;27.40;;;;;;5055527;28;20080;-11
2022/04/28 12:36:26;;;;;;;3.85;2.70;;;33.30;27.60;;;;;;5054995;28;20512;-12
2022/04/28 12:38:53;;;;;;;2.70;2.50;;;33.20;27.80;;;;;;5055031;28;20033;-11
2022/04/28 12:41:24;;;;;;;2.40;2.20;;;33.20;28.30;;;;;;5055319;28;20029;-12
2022/04/28 12:43:52;;;;;;;2.75;2.22;;;33.30;28.30;;;;;;5055296;28;20033;-12
2022/04/28 12:46:38;;;;;;;4.57;2.70;;;33.40;28.20;;;;;;5054872;28;20477;-12
2022/04/28 12:49:07;;;;;;;2.92;2.50;;;33.20;28.10;;;;;;5055031;28;20485;-12
2022/04/28 12:51:44;;;;;;;3.10;2.50;;;32.90;27.80;;;;;;5055213;28;20017;-12
2022/04/28 12:54:17;;;;;;;3.08;2.63;;;32.50;28.40;;;;;;5055077;28;20112;-11
2022/04/28 12:56:53;;;;;;;3.15;2.50;;;32.30;28.50;;;;;;5054792;28;20032;-13
2022/04/28 12:59:21;;;;;;;3.60;2.80;;;31.90;28.80;;;;;;5055583;28;20029;-11
2022/04/28 13:01:48;;;;;;;4.22;3.22;;;31.70;29.10;;;;;;5055017;28;20033;-11
2022/04/28 13:04:19;;;;;;;4.18;2.92;;;31.60;28.90;;;;;;5054740;28;20083;-11
2022/04/28 13:06:46;;;;;;;4.50;2.67;;;31.40;28.90;;;;;;5055255;28;20053;-14
2022/04/28 13:09:16;;;;;;;3.83;3.38;;;31.40;28.80;;;;;;5053863;28;20562;-11
2022/04/28 13:11:43;;;;;;;4.47;3.40;;;31.40;28.80;;;;;;5054586;28;20489;-12
2022/04/28 13:14:11;;;;;;;4.80;3.20;;;31.40;28.70;;;;;;5054221;28;20156;-13
2022/04/28 13:16:38;;;;;;;3.05;2.70;;;31.20;29.30;;;;;;5054220;28;20436;-11
2022/04/28 13:19:05;;;;;;;3.30;2.40;;;30.90;29.30;;;;;;5054614;28;20021;-11
2022/04/28 13:21:32;;;;;;;3.58;2.70;;;30.80;29.70;;;;;;5054267;28;20547;-11
2022/04/28 13:23:59;;;;;;;3.92;2.78;;;31.00;29.70;;;;;;5054151;28;20565;-11
2022/04/28 13:26:28;;;;;;;4.68;2.40;;;31.20;29.70;;;;;;5054332;28;20044;-11
2022/04/28 13:28:55;;;;;;;3.33;2.67;;;31.40;29.80;;;;;;5054179;28;20484;-11
2022/04/28 13:31:21;;;;;;;3.97;2.67;;;31.40;29.50;;;;;;5054457;28;20048;-11
2022/04/28 13:33:50;;;;;;;4.30;3.20;;;31.40;28.90;;;;;;5054424;28;20025;-11